createdAt,value
2024-02-19T00:02:46.012Z,26.60
2024-02-19T00:06:03.191Z,23.38
2024-02-19T00:09:21.689Z,25.68
2024-02-19T00:12:39.588Z,26.55
2024-02-19T00:15:57.524Z,27.13
2024-02-19T00:19:15.753Z,25.68
2024-02-19T00:22:33.101Z,27.25
2024-02-19T00:25:52.174Z,27.83
2024-02-19T00:29:09.934Z,26.03
2024-02-19T00:32:27.863Z,27.95
2024-02-19T00:35:45.684Z,26.83
2024-02-19T00:39:03.727Z,27.03
2024-02-19T00:42:21.423Z,24.85
2024-02-19T00:45:39.204Z,27.15
2024-02-19T00:48:56.502Z,25.28
2024-02-19T00:52:14.320Z,28.90
2024-02-19T00:55:32.985Z,28.00
2024-02-19T00:58:50.851Z,27.73
2024-02-19T01:02:08.082Z,29.13
2024-02-19T01:05:27.247Z,28.58
2024-02-19T01:08:45.028Z,26.48
2024-02-19T01:12:02.767Z,28.60
2024-02-19T01:15:21.136Z,25.90
2024-02-19T01:18:38.792Z,28.40
2024-02-19T01:21:56.613Z,27.28
2024-02-19T01:25:15.748Z,29.10
2024-02-19T01:28:33.472Z,31.08
2024-02-19T01:31:52.781Z,27.80
2024-02-19T01:35:10.516Z,30.13
2024-02-19T01:38:28.338Z,28.40
2024-02-19T01:41:45.776Z,30.23
2024-02-19T01:45:03.079Z,30.25
2024-02-19T01:48:20.977Z,28.93
2024-02-19T01:51:39.850Z,29.30
2024-02-19T01:54:58.028Z,30.30
2024-02-19T01:58:16.728Z,30.65
2024-02-19T02:01:37.330Z,32.20
2024-02-19T02:04:54.872Z,31.35
2024-02-19T02:08:13.338Z,31.25
2024-02-19T02:11:31.094Z,29.95
2024-02-19T02:14:48.979Z,29.65
2024-02-19T02:18:06.483Z,29.13
2024-02-19T02:21:24.292Z,28.85
2024-02-19T02:24:41.479Z,25.75
2024-02-19T02:27:59.596Z,30.08
2024-02-19T02:31:17.489Z,30.03
2024-02-19T02:34:36.615Z,30.93
2024-02-19T02:37:54.101Z,29.45
2024-02-19T02:41:11.955Z,30.53
2024-02-19T02:44:29.768Z,30.15
2024-02-19T02:47:47.229Z,32.03
2024-02-19T02:51:04.507Z,32.65
2024-02-19T02:54:21.948Z,30.08
2024-02-19T02:57:39.693Z,28.23
2024-02-19T03:00:57.582Z,31.73
2024-02-19T03:04:15.825Z,30.55
2024-02-19T03:07:33.632Z,30.83
2024-02-19T03:10:51.587Z,31.43
2024-02-19T03:14:11.898Z,32.28
2024-02-19T03:17:30.862Z,32.25
2024-02-19T03:20:48.735Z,32.88
2024-02-19T03:24:06.673Z,33.50
2024-02-19T03:27:24.697Z,29.73
2024-02-19T03:30:42.496Z,32.65
2024-02-19T03:34:00.371Z,32.90
2024-02-19T03:37:18.589Z,33.35
2024-02-19T03:40:36.567Z,31.35
2024-02-19T03:43:54.282Z,35.03
2024-02-19T03:47:13.259Z,35.00
2024-02-19T03:50:30.909Z,35.68
2024-02-19T03:53:48.333Z,35.08
2024-02-19T03:57:06.784Z,35.35
2024-02-19T04:00:26.036Z,31.03
2024-02-19T04:03:43.270Z,30.28
2024-02-19T04:07:01.789Z,33.98
2024-02-19T04:10:20.626Z,32.78
2024-02-19T04:13:38.401Z,32.73
2024-02-19T04:16:55.968Z,31.58
2024-02-19T04:20:16.032Z,31.20
2024-02-19T04:23:33.479Z,30.15
2024-02-19T04:26:50.930Z,31.23
2024-02-19T04:30:08.815Z,33.40
2024-02-19T04:33:26.987Z,30.53
2024-02-19T04:36:44.513Z,32.03
2024-02-19T04:40:02.288Z,30.58
2024-02-19T04:43:20.309Z,33.38
2024-02-19T04:46:39.168Z,32.48
2024-02-19T04:49:57.347Z,33.00
2024-02-19T04:53:17.071Z,33.83
2024-02-19T04:56:34.605Z,30.60
2024-02-19T04:59:52.315Z,33.08
2024-02-19T05:03:10.124Z,32.28
2024-02-19T05:06:30.139Z,34.20
2024-02-19T05:09:48.180Z,36.10
2024-02-19T05:13:05.929Z,34.18
2024-02-19T05:16:23.659Z,31.85
2024-02-19T05:19:41.491Z,31.85
2024-02-19T05:22:59.270Z,33.23
2024-02-19T05:26:17.134Z,34.08
2024-02-19T05:29:34.689Z,32.90
2024-02-19T05:32:52.413Z,32.40
2024-02-19T05:36:11.513Z,32.20
2024-02-19T05:39:29.195Z,30.70
2024-02-19T05:42:48.212Z,31.43
2024-02-19T05:46:05.886Z,32.10
2024-02-19T05:49:24.099Z,31.35
2024-02-19T05:52:41.929Z,29.55
2024-02-19T05:55:59.764Z,31.83
2024-02-19T05:59:17.714Z,29.75
2024-02-19T06:02:35.470Z,29.98
2024-02-19T06:05:55.368Z,29.70
2024-02-19T06:09:13.029Z,30.33
2024-02-19T06:12:30.501Z,29.98
2024-02-19T06:15:48.344Z,30.70
2024-02-19T06:19:06.108Z,29.50
2024-02-19T06:22:23.847Z,32.40
2024-02-19T06:25:41.674Z,34.58
2024-02-19T06:28:59.517Z,43.93
2024-02-19T06:32:18.192Z,32.78
2024-02-19T06:35:35.706Z,29.68
2024-02-19T06:38:53.400Z,31.95
2024-02-19T06:42:12.346Z,31.70
2024-02-19T06:45:29.951Z,30.13
2024-02-19T06:48:50.699Z,29.85
2024-02-19T06:52:07.859Z,31.50
2024-02-19T06:55:26.715Z,147.48
2024-02-19T06:58:44.509Z,37.18
2024-02-19T07:02:06.835Z,30.10
2024-02-19T07:05:22.205Z,30.80
2024-02-19T07:08:40.053Z,30.13
2024-02-19T07:11:57.694Z,31.35
2024-02-19T07:15:17.223Z,30.15
2024-02-19T07:18:34.890Z,29.88
2024-02-19T07:21:52.625Z,29.73
2024-02-19T07:25:17.341Z,35.40
2024-02-19T07:28:30.242Z,31.25
2024-02-19T07:31:47.991Z,30.98
2024-02-19T07:35:05.917Z,29.23
2024-02-19T07:38:23.519Z,30.55
2024-02-19T07:41:41.076Z,26.55
2024-02-19T07:44:58.665Z,27.43
2024-02-19T07:48:18.820Z,30.20
2024-02-19T07:51:36.710Z,32.98
2024-02-19T07:54:54.191Z,30.30
2024-02-19T07:58:12.229Z,30.75
2024-02-19T08:01:30.168Z,29.40
2024-02-19T08:04:48.122Z,30.23
2024-02-19T08:08:05.854Z,27.78
2024-02-19T08:11:25.383Z,29.35
2024-02-19T08:14:42.840Z,30.28
2024-02-19T08:18:00.498Z,30.28
2024-02-19T08:21:18.725Z,29.35
2024-02-19T08:24:36.412Z,28.25
2024-02-19T08:27:55.592Z,31.63
2024-02-19T08:31:13.702Z,32.80
2024-02-19T08:34:31.728Z,37.18
2024-02-19T08:37:49.717Z,31.98
2024-02-19T08:41:07.543Z,31.43
2024-02-19T08:44:25.946Z,32.88
2024-02-19T08:47:44.143Z,31.83
2024-02-19T08:51:03.131Z,31.48
2024-02-19T08:54:20.924Z,65.63
2024-02-19T08:57:38.540Z,49.38
2024-02-19T09:00:56.390Z,34.35
2024-02-19T09:04:14.128Z,31.63
2024-02-19T09:07:31.732Z,30.15
2024-02-19T09:10:49.397Z,31.80
2024-02-19T09:14:07.510Z,29.38
2024-02-19T09:17:25.221Z,32.30
2024-02-19T09:20:42.525Z,42.83
2024-02-19T09:24:00.237Z,35.25
2024-02-19T09:27:18.006Z,30.45
2024-02-19T09:30:35.835Z,30.75
2024-02-19T09:33:55.441Z,33.00
2024-02-19T09:37:13.610Z,29.13
2024-02-19T09:40:32.134Z,35.23
2024-02-19T09:43:50.395Z,31.60
2024-02-19T09:47:10.331Z,54.58
2024-02-19T09:50:28.098Z,59.10
2024-02-19T09:53:46.265Z,35.88
2024-02-19T09:57:04.257Z,30.48
2024-02-19T10:00:25.609Z,31.78
2024-02-19T10:03:43.245Z,31.80
2024-02-19T10:07:04.582Z,32.68
2024-02-19T10:10:23.731Z,31.18
2024-02-19T10:13:43.455Z,32.35
2024-02-19T10:17:02.313Z,110.30
2024-02-19T10:20:22.268Z,40.70
2024-02-19T10:23:40.028Z,33.68
2024-02-19T10:26:58.218Z,32.63
2024-02-19T10:30:20.988Z,32.70
2024-02-19T10:33:39.424Z,32.03
2024-02-19T10:36:57.126Z,31.23
2024-02-19T10:40:21.589Z,31.70
2024-02-19T10:43:39.346Z,31.85
2024-02-19T10:46:57.510Z,31.58
2024-02-19T10:50:20.415Z,47.83
2024-02-19T10:53:40.040Z,50.90
2024-02-19T10:56:57.817Z,48.70
2024-02-19T11:00:22.397Z,56.93
2024-02-19T11:03:51.426Z,57.75
2024-02-19T11:07:10.196Z,56.38
2024-02-19T11:10:28.183Z,49.43
2024-02-19T11:13:48.983Z,34.58
2024-02-19T11:17:06.686Z,15.50
2024-02-19T11:20:31.826Z,24.45
2024-02-19T11:23:48.909Z,22.70
2024-02-19T11:27:09.115Z,23.55
2024-02-19T11:30:26.548Z,4.58
2024-02-19T11:33:43.724Z,6.95
2024-02-19T11:37:02.706Z,4.68
2024-02-19T11:40:22.084Z,2.90
2024-02-19T11:43:40.088Z,2.60
2024-02-19T11:46:58.616Z,2.30
2024-02-19T11:50:20.978Z,2.63
2024-02-19T11:53:38.256Z,2.10
2024-02-19T11:56:59.608Z,2.20
2024-02-19T12:00:20.398Z,2.40
2024-02-19T12:03:39.640Z,2.10
2024-02-19T12:06:56.904Z,2.65
2024-02-19T12:10:17.988Z,2.30
2024-02-19T12:13:38.124Z,2.15
2024-02-19T12:16:57.200Z,2.45
2024-02-19T12:20:17.147Z,2.18
2024-02-19T12:23:34.403Z,2.53
2024-02-19T12:26:51.569Z,2.30
2024-02-19T12:30:09.209Z,1.83
2024-02-19T12:33:26.779Z,2.23
2024-02-19T12:36:44.086Z,2.08
2024-02-19T12:40:01.474Z,2.30
2024-02-19T12:43:19.198Z,2.00
2024-02-19T12:46:36.675Z,2.40
2024-02-19T12:49:55.196Z,2.58
2024-02-19T12:53:13.257Z,1.90
2024-02-19T12:56:30.893Z,2.13
2024-02-19T12:59:48.575Z,2.00
2024-02-19T13:03:06.039Z,2.00
2024-02-19T13:06:23.471Z,2.13
2024-02-19T13:09:41.782Z,2.13
2024-02-19T13:12:59.434Z,2.20
2024-02-19T13:16:18.100Z,1.95
2024-02-19T13:19:35.878Z,1.88
2024-02-19T13:22:53.319Z,1.70
2024-02-19T13:26:12.416Z,2.08
2024-02-19T13:29:29.626Z,2.05
2024-02-19T13:32:48.279Z,1.60
2024-02-19T13:36:05.808Z,2.13
2024-02-19T13:39:23.225Z,1.78
2024-02-19T13:42:40.315Z,2.13
2024-02-19T13:46:09.003Z,2.48
2024-02-19T13:49:28.391Z,2.58
2024-02-19T13:52:45.891Z,2.55
2024-02-19T13:56:03.925Z,2.60
2024-02-19T13:59:21.035Z,2.00
2024-02-19T14:02:38.200Z,2.40
2024-02-19T14:05:56.087Z,2.10
2024-02-19T14:09:13.648Z,2.40
2024-02-19T14:12:30.849Z,2.25
2024-02-19T14:15:48.247Z,2.25
2024-02-19T14:19:05.731Z,2.40
2024-02-19T14:22:24.078Z,2.30
2024-02-19T14:25:42.116Z,2.50
2024-02-19T14:28:59.884Z,2.73
2024-02-19T14:32:18.232Z,3.20
2024-02-19T14:35:35.750Z,5.05
2024-02-19T14:38:53.628Z,2.80
2024-02-19T14:42:11.949Z,3.50
2024-02-19T14:45:29.394Z,3.28
2024-02-19T14:48:47.629Z,3.38
2024-02-19T14:52:05.227Z,3.00
2024-02-19T14:55:22.716Z,2.50
2024-02-19T14:58:40.244Z,3.25
2024-02-19T15:01:57.697Z,3.23
2024-02-19T15:05:17.601Z,3.13
2024-02-19T15:08:37.807Z,3.00
2024-02-19T15:11:55.423Z,3.25
2024-02-19T15:15:17.038Z,2.88
2024-02-19T15:18:34.649Z,3.13
2024-02-19T15:21:52.229Z,2.80
2024-02-19T15:25:10.569Z,2.68
2024-02-19T15:28:27.850Z,2.98
2024-02-19T15:31:47.249Z,2.60
2024-02-19T15:35:05.238Z,3.03
2024-02-19T15:38:23.987Z,2.83
2024-02-19T15:41:41.606Z,2.95
2024-02-19T15:44:58.995Z,3.18
2024-02-19T15:48:18.071Z,3.80
2024-02-19T15:51:35.782Z,4.10
2024-02-19T15:54:54.052Z,4.45
2024-02-19T15:58:11.759Z,3.60
2024-02-19T16:01:29.530Z,3.93
2024-02-19T16:04:46.872Z,3.88
2024-02-19T16:08:04.826Z,5.38
2024-02-19T16:11:22.202Z,4.73
2024-02-19T16:14:40.853Z,5.28
2024-02-19T16:17:58.110Z,5.48
2024-02-19T16:21:15.878Z,6.58
2024-02-19T16:24:35.624Z,7.20
2024-02-19T16:27:53.132Z,6.65
2024-02-19T16:31:11.803Z,8.23
2024-02-19T16:34:29.529Z,7.48
2024-02-19T16:37:47.228Z,7.85
2024-02-19T16:41:04.430Z,8.63
2024-02-19T16:44:22.412Z,8.93
2024-02-19T16:47:39.899Z,10.15
2024-02-19T16:50:59.027Z,10.45
2024-02-19T16:54:18.394Z,10.90
2024-02-19T16:57:35.583Z,12.58
2024-02-19T17:00:55.673Z,12.65
2024-02-19T17:04:13.550Z,13.23
2024-02-19T17:07:32.028Z,12.00
2024-02-19T17:10:50.129Z,10.45
2024-02-19T17:14:07.738Z,10.43
2024-02-19T17:17:25.115Z,9.88
2024-02-19T17:20:42.451Z,8.95
2024-02-19T17:23:59.687Z,8.70
2024-02-19T17:27:17.313Z,9.05
2024-02-19T17:30:34.538Z,8.03
2024-02-19T17:33:52.169Z,7.45
2024-02-19T17:37:09.685Z,8.20
2024-02-19T17:40:28.157Z,6.63
2024-02-19T17:43:46.676Z,6.20
2024-02-19T17:47:04.894Z,5.60
2024-02-19T17:50:22.589Z,4.28
2024-02-19T17:53:39.849Z,4.40
2024-02-19T17:56:57.278Z,4.43
2024-02-19T18:00:17.643Z,4.58
2024-02-19T18:03:35.207Z,4.73
2024-02-19T18:06:52.391Z,4.50
2024-02-19T18:10:10.253Z,4.08
2024-02-19T18:13:27.454Z,3.95
2024-02-19T18:16:46.602Z,5.00
2024-02-19T18:20:03.941Z,4.50
2024-02-19T18:23:21.412Z,5.05
2024-02-19T18:26:39.570Z,4.88
2024-02-19T18:29:58.967Z,4.00
2024-02-19T18:33:18.071Z,3.08
2024-02-19T18:36:35.328Z,3.20
2024-02-19T18:39:52.453Z,3.53
2024-02-19T18:43:10.270Z,4.00
2024-02-19T18:46:27.623Z,3.95
2024-02-19T18:49:47.264Z,4.08
2024-02-19T18:53:04.890Z,3.80
2024-02-19T18:56:22.030Z,4.15
2024-02-19T18:59:41.652Z,4.08
2024-02-19T19:03:00.456Z,4.50
2024-02-19T19:06:19.943Z,4.53
2024-02-19T19:09:38.957Z,4.53
2024-02-19T19:12:56.374Z,10.35
2024-02-19T19:16:14.946Z,5.20
2024-02-19T19:19:32.281Z,5.18
2024-02-19T19:22:49.578Z,4.83
2024-02-19T19:26:07.678Z,5.20
2024-02-19T19:29:25.870Z,4.83
2024-02-19T19:32:43.175Z,5.30
2024-02-19T19:36:01.932Z,5.65
2024-02-19T19:39:19.495Z,5.53
2024-02-19T19:42:37.843Z,5.63
2024-02-19T19:45:57.219Z,5.63
2024-02-19T19:49:15.904Z,5.23
2024-02-19T19:52:35.682Z,5.45
2024-02-19T19:55:53.204Z,5.98
2024-02-19T19:59:10.990Z,6.30
2024-02-19T20:02:28.332Z,6.33
2024-02-19T20:05:46.110Z,6.25
2024-02-19T20:09:03.473Z,8.08
2024-02-19T20:12:22.316Z,5.98
2024-02-19T20:15:40.763Z,5.83
2024-02-19T20:18:58.015Z,6.03
2024-02-19T20:22:15.437Z,6.70
2024-02-19T20:25:32.964Z,6.73
2024-02-19T20:28:50.668Z,6.20
2024-02-19T20:32:09.842Z,7.00
2024-02-19T20:35:27.878Z,7.13
2024-02-19T20:38:45.418Z,7.60
2024-02-19T20:42:02.917Z,7.60
2024-02-19T20:45:22.272Z,7.80
2024-02-19T20:48:39.525Z,7.35
2024-02-19T20:51:56.755Z,7.25
2024-02-19T20:55:15.631Z,7.48
2024-02-19T20:58:33.217Z,7.13
2024-02-19T21:01:50.520Z,7.20
2024-02-19T21:05:08.513Z,7.28
2024-02-19T21:08:26.299Z,6.90
2024-02-19T21:11:43.723Z,6.53
2024-02-19T21:15:00.994Z,6.83
2024-02-19T21:18:30.617Z,6.25
2024-02-19T21:21:37.387Z,6.65
2024-02-19T21:24:54.844Z,5.95
2024-02-19T21:28:14.235Z,8.28
2024-02-19T21:31:31.584Z,6.80
2024-02-19T21:34:49.435Z,6.08
2024-02-19T21:38:06.931Z,7.23
2024-02-19T21:41:24.277Z,6.38
2024-02-19T21:44:41.821Z,7.60
2024-02-19T21:47:59.138Z,9.80
2024-02-19T21:51:17.640Z,7.95
2024-02-19T21:54:34.829Z,7.23
2024-02-19T21:57:52.736Z,6.95
2024-02-19T22:01:10.382Z,5.88
2024-02-19T22:04:27.800Z,6.00
2024-02-19T22:07:47.155Z,6.63
2024-02-19T22:11:04.672Z,5.90
2024-02-19T22:14:22.472Z,5.73
2024-02-19T22:17:39.708Z,6.58
2024-02-19T22:20:57.021Z,5.53
2024-02-19T22:24:15.284Z,5.63
2024-02-19T22:27:32.552Z,5.73
2024-02-19T22:30:49.746Z,5.50
2024-02-19T22:34:07.217Z,5.65
2024-02-19T22:37:24.549Z,5.80
2024-02-19T22:40:41.835Z,5.93
2024-02-19T22:43:59.178Z,5.10
2024-02-19T22:47:16.703Z,5.75
2024-02-19T22:50:34.332Z,6.65
2024-02-19T22:53:51.432Z,6.75
2024-02-19T23:00:31.250Z,7.90
2024-02-19T23:03:48.909Z,8.68
2024-02-19T23:07:06.222Z,9.18
2024-02-19T23:10:23.768Z,10.65
2024-02-19T23:13:41.016Z,10.95
2024-02-19T23:16:59.967Z,11.95
2024-02-19T23:20:19.850Z,11.35
2024-02-19T23:23:36.953Z,10.90
2024-02-19T23:26:54.022Z,11.48
2024-02-19T23:30:12.659Z,11.58
2024-02-19T23:33:30.006Z,11.80
2024-02-19T23:36:47.609Z,11.18
2024-02-19T23:40:06.037Z,12.05
2024-02-19T23:43:24.998Z,11.35
2024-02-19T23:46:42.378Z,11.55
2024-02-19T23:49:59.656Z,10.60
2024-02-19T23:53:17.241Z,10.33
2024-02-19T23:56:34.507Z,9.53
2024-02-19T23:59:51.661Z,10.30
